Red Cliffs, Australia
Current Conditions -  °F | °C
As of 11:00 PM on Tuesday 27 Jan 2015 (Local Time) from YMIA Reporting Station
Clear Clear  
Wind Chill: 72°   Ceiling: Unl
Heat Index: 72°   Visibility: 6mi
Dew Point: 37°   Wind: 14mph
Humidity: 29%   Direction: 170°S
Pressure: 29.91"   Gusts: NA
Location:  34.31°S, 142.19°E
Report Text: YMIA 271200Z AUTO 17012KT 9999 // NCD 22/03 Q1013
Loading
Personal Weather Stations






























Interactive Weather Map New forecast layout! Learn more

10-Day Weather Forecast

Advertisements
Track Severe Weather on mobile